createdAt,value
2018-09-05T00:01:42.387Z,13.60
2018-09-05T00:04:10.515Z,13.70
2018-09-05T00:06:38.604Z,13.70
2018-09-05T00:09:07.653Z,13.80
2018-09-05T00:11:36.211Z,14.00
2018-09-05T00:14:04.385Z,14.00
2018-09-05T00:16:32.458Z,13.90
2018-09-05T00:19:00.583Z,13.90
2018-09-05T00:21:28.742Z,13.80
2018-09-05T00:23:56.870Z,13.80
2018-09-05T00:26:24.966Z,13.80
2018-09-05T00:28:53.056Z,13.80
2018-09-05T00:31:21.141Z,13.80
2018-09-05T00:33:49.232Z,13.90
2018-09-05T00:36:17.321Z,13.90
2018-09-05T00:38:45.405Z,13.90
2018-09-05T00:41:13.536Z,13.90
2018-09-05T00:43:41.612Z,13.90
2018-09-05T00:46:09.735Z,13.90
2018-09-05T00:48:37.836Z,13.80
2018-09-05T00:51:06.246Z,13.90
2018-09-05T00:56:27.078Z,14.00
2018-09-05T00:58:55.163Z,14.00
2018-09-05T01:01:23.238Z,13.90
2018-09-05T01:03:51.321Z,13.80
2018-09-05T01:06:19.404Z,13.60
2018-09-05T01:08:47.485Z,13.50
2018-09-05T01:11:15.588Z,13.40
2018-09-05T01:13:43.721Z,13.40
2018-09-05T01:16:12.481Z,13.40
2018-09-05T01:18:40.574Z,13.40
2018-09-05T01:21:08.671Z,13.50
2018-09-05T01:23:36.777Z,13.70
2018-09-05T01:26:04.850Z,13.60
2018-09-05T01:28:32.956Z,13.70
2018-09-05T01:31:01.030Z,13.70
2018-09-05T01:33:29.160Z,13.60
2018-09-05T01:36:02.666Z,13.60
2018-09-05T01:38:30.766Z,13.50
2018-09-05T01:40:58.894Z,13.40
2018-09-05T01:43:27.014Z,13.40
2018-09-05T01:45:55.111Z,13.40
2018-09-05T01:48:23.245Z,13.40
2018-09-05T01:50:51.360Z,13.30
2018-09-05T01:53:19.474Z,13.30
2018-09-05T01:55:47.571Z,13.40
2018-09-05T01:58:15.671Z,13.60
2018-09-05T02:00:43.775Z,13.70
2018-09-05T02:03:11.863Z,13.80
2018-09-05T02:05:40.048Z,14.00
2018-09-05T02:08:08.200Z,14.10
2018-09-05T02:10:36.314Z,14.20
2018-09-05T02:13:04.537Z,14.30
2018-09-05T02:15:32.647Z,14.40
2018-09-05T02:18:00.721Z,14.50
2018-09-05T02:20:28.910Z,14.50
2018-09-05T02:22:56.973Z,14.60
2018-09-05T02:25:25.046Z,14.60
2018-09-05T02:27:53.085Z,14.60
2018-09-05T02:30:21.163Z,14.60
2018-09-05T02:32:49.228Z,14.70
2018-09-05T02:35:17.287Z,14.80
2018-09-05T02:37:45.374Z,14.90
2018-09-05T02:40:13.627Z,14.90
2018-09-05T02:42:41.670Z,14.90
2018-09-05T02:45:09.739Z,15.00
2018-09-05T02:47:37.837Z,15.10
2018-09-05T02:50:05.900Z,15.10
2018-09-05T02:52:34.465Z,15.20
2018-09-05T02:55:02.585Z,15.20
2018-09-05T02:57:30.658Z,15.30
2018-09-05T02:59:58.796Z,15.30
2018-09-05T03:02:26.869Z,15.30
2018-09-05T03:04:55.051Z,15.30
2018-09-05T03:07:23.118Z,15.30
2018-09-05T03:09:51.204Z,15.30
2018-09-05T03:12:21.094Z,15.30
2018-09-05T03:14:50.909Z,15.30
2018-09-05T03:17:19.203Z,15.40
2018-09-05T03:19:47.299Z,15.40
2018-09-05T03:22:15.358Z,15.40
2018-09-05T03:24:43.442Z,15.50
2018-09-05T03:27:11.534Z,15.50
2018-09-05T03:29:39.594Z,15.50
2018-09-05T03:32:07.684Z,15.50
2018-09-05T03:34:35.777Z,15.50
2018-09-05T03:37:03.921Z,15.50
2018-09-05T03:39:32.000Z,15.60
2018-09-05T03:42:00.069Z,15.60
2018-09-05T03:44:28.126Z,15.60
2018-09-05T03:46:56.179Z,15.60
2018-09-05T03:49:24.266Z,15.60
2018-09-05T03:51:52.695Z,15.70
2018-09-05T03:54:20.751Z,15.70
2018-09-05T03:56:48.806Z,15.70
2018-09-05T03:59:16.911Z,15.70
2018-09-05T04:01:45.051Z,15.80
2018-09-05T04:04:13.120Z,15.80
2018-09-05T04:06:41.199Z,15.90
2018-09-05T04:09:09.283Z,15.90
2018-09-05T04:11:37.359Z,15.90
2018-09-05T04:14:05.515Z,15.90
2018-09-05T04:16:33.695Z,15.90
2018-09-05T04:19:01.781Z,15.90
2018-09-05T04:21:29.894Z,15.90
2018-09-05T04:23:57.962Z,15.90
2018-09-05T04:26:26.094Z,15.90
2018-09-05T04:28:54.183Z,15.90
2018-09-05T04:31:22.231Z,16.00
2018-09-05T04:33:50.463Z,16.00
2018-09-05T04:36:18.554Z,16.00
2018-09-05T04:38:46.606Z,16.00
2018-09-05T04:41:14.654Z,16.00
2018-09-05T04:43:42.755Z,16.00
2018-09-05T04:46:10.866Z,16.00
2018-09-05T04:48:38.926Z,16.10
2018-09-05T04:51:07.009Z,16.10
2018-09-05T04:53:35.087Z,16.10
2018-09-05T04:56:03.166Z,16.20
2018-09-05T04:58:31.278Z,16.20
2018-09-05T05:00:59.360Z,16.20
2018-09-05T05:03:27.411Z,16.20
2018-09-05T05:05:55.506Z,16.30
2018-09-05T05:08:23.551Z,16.30
2018-09-05T05:10:51.636Z,16.30
2018-09-05T05:13:19.694Z,16.30
2018-09-05T05:15:47.770Z,16.30
2018-09-05T05:18:15.862Z,16.30
2018-09-05T05:20:43.958Z,16.40
2018-09-05T05:23:12.075Z,16.40
2018-09-05T05:25:40.126Z,16.50
2018-09-05T05:28:08.214Z,16.50
2018-09-05T05:30:36.270Z,16.60
2018-09-05T05:33:04.342Z,16.60
2018-09-05T05:35:32.399Z,16.60
2018-09-05T05:38:00.475Z,16.60
2018-09-05T05:40:28.555Z,16.70
2018-09-05T05:42:56.623Z,16.70
2018-09-05T05:45:24.683Z,16.70
2018-09-05T05:47:52.745Z,16.70
2018-09-05T05:50:20.812Z,16.70
2018-09-05T05:52:48.875Z,16.70
2018-09-05T05:55:16.931Z,16.80
2018-09-05T05:57:44.974Z,16.90
2018-09-05T06:00:13.046Z,16.90
2018-09-05T06:02:41.139Z,17.00
2018-09-05T06:05:09.199Z,17.00
2018-09-05T06:07:37.252Z,17.10
2018-09-05T06:10:05.310Z,17.10
2018-09-05T06:12:33.391Z,17.10
2018-09-05T06:15:01.451Z,17.20
2018-09-05T06:17:29.565Z,17.20
2018-09-05T06:19:57.605Z,17.30
2018-09-05T06:22:25.675Z,17.40
2018-09-05T06:24:53.735Z,17.30
2018-09-05T06:27:21.815Z,17.40
2018-09-05T06:29:49.903Z,17.40
2018-09-05T06:32:17.977Z,17.40
2018-09-05T06:34:46.047Z,17.50
2018-09-05T06:37:14.102Z,17.60
2018-09-05T06:39:42.146Z,17.70
2018-09-05T06:42:10.340Z,17.80
2018-09-05T06:44:38.406Z,17.70
2018-09-05T06:47:06.471Z,17.80
2018-09-05T06:49:34.559Z,17.80
2018-09-05T06:52:02.658Z,17.90
2018-09-05T06:54:30.758Z,18.00
2018-09-05T06:56:58.942Z,18.20
2018-09-05T06:59:27.098Z,18.40
2018-09-05T07:01:55.296Z,18.50
2018-09-05T07:04:23.397Z,18.60
2018-09-05T07:06:51.502Z,19.00
2018-09-05T07:09:19.590Z,19.50
2018-09-05T07:11:47.678Z,19.90
2018-09-05T07:14:15.853Z,20.00
2018-09-05T07:16:43.961Z,20.10
2018-09-05T07:19:12.717Z,20.20
2018-09-05T07:21:40.779Z,20.30
2018-09-05T07:24:08.875Z,20.50
2018-09-05T07:26:37.629Z,20.90
2018-09-05T07:29:05.874Z,21.10
2018-09-05T07:31:34.034Z,21.00
2018-09-05T07:34:02.346Z,21.40
2018-09-05T07:36:30.550Z,21.60
2018-09-05T07:38:59.123Z,21.30
2018-09-05T07:41:27.195Z,21.50
2018-09-05T07:43:55.338Z,22.20
2018-09-05T07:46:23.470Z,22.60
2018-09-05T07:48:51.626Z,22.70
2018-09-05T07:51:20.226Z,23.10
2018-09-05T07:53:48.388Z,22.90
2018-09-05T07:56:16.547Z,22.80
2018-09-05T07:58:44.701Z,22.90
2018-09-05T08:01:12.804Z,22.70
2018-09-05T08:03:40.863Z,22.40
2018-09-05T08:06:08.946Z,22.20
2018-09-05T08:08:37.067Z,22.30
2018-09-05T08:11:05.235Z,22.30
2018-09-05T08:13:33.357Z,22.40
2018-09-05T08:16:01.443Z,22.50
2018-09-05T08:18:29.540Z,23.30
2018-09-05T08:20:57.671Z,23.90
2018-09-05T08:23:25.801Z,23.80
2018-09-05T08:25:53.876Z,23.80
2018-09-05T08:28:21.961Z,23.60
2018-09-05T08:30:50.095Z,24.50
2018-09-05T08:33:18.564Z,24.40
2018-09-05T08:35:46.877Z,24.10
2018-09-05T08:38:14.873Z,24.50
2018-09-05T08:40:42.968Z,25.90
2018-09-05T08:43:11.103Z,26.50
2018-09-05T08:45:39.372Z,27.90
2018-09-05T08:48:07.480Z,26.50
2018-09-05T08:50:35.643Z,27.10
2018-09-05T08:53:03.807Z,29.30
2018-09-05T08:55:31.926Z,31.10
2018-09-05T08:58:00.042Z,31.60
2018-09-05T09:00:28.196Z,31.80
2018-09-05T09:02:56.299Z,33.40
2018-09-05T09:05:24.430Z,33.90
2018-09-05T09:07:52.571Z,33.50
2018-09-05T09:10:20.764Z,33.90
2018-09-05T09:12:48.863Z,32.60
2018-09-05T09:15:16.987Z,33.40
2018-09-05T09:17:45.151Z,32.70
2018-09-05T09:20:13.301Z,31.90
2018-09-05T09:22:41.410Z,31.10
2018-09-05T09:25:09.464Z,31.50
2018-09-05T09:27:37.706Z,31.50
2018-09-05T09:30:05.895Z,32.10
2018-09-05T09:32:33.959Z,34.30
2018-09-05T09:35:02.052Z,34.70
2018-09-05T09:37:30.161Z,35.40
2018-09-05T09:39:58.296Z,35.40
2018-09-05T09:42:26.423Z,37.00
2018-09-05T09:44:54.558Z,36.80
2018-09-05T09:47:22.610Z,34.80
2018-09-05T09:49:50.715Z,32.90
2018-09-05T09:52:20.851Z,31.90
2018-09-05T09:54:50.266Z,33.50
2018-09-05T09:57:18.350Z,35.20
2018-09-05T09:59:46.459Z,35.10
2018-09-05T10:02:19.958Z,36.70
2018-09-05T10:04:53.543Z,37.50
2018-09-05T10:07:27.001Z,38.40
2018-09-05T10:10:00.771Z,37.40
2018-09-05T10:12:34.299Z,38.20
2018-09-05T10:15:06.622Z,38.20
2018-09-05T10:17:36.405Z,36.30
2018-09-05T10:20:04.647Z,34.40
2018-09-05T10:22:33.005Z,32.40
2018-09-05T10:25:01.139Z,31.70
2018-09-05T10:27:29.508Z,30.50
2018-09-05T10:29:58.116Z,30.30
2018-09-05T10:32:26.452Z,30.90
2018-09-05T10:34:55.761Z,30.40
2018-09-05T10:37:23.838Z,29.60
2018-09-05T10:39:51.932Z,28.30
2018-09-05T10:42:20.071Z,27.90
2018-09-05T10:44:48.207Z,27.90
2018-09-05T10:47:16.290Z,27.90
2018-09-05T10:49:44.449Z,29.30
2018-09-05T10:52:12.638Z,30.20
2018-09-05T10:54:40.747Z,28.10
2018-09-05T11:00:01.642Z,31.00
2018-09-05T11:02:29.745Z,35.40
2018-09-05T11:04:57.851Z,37.80
2018-09-05T11:07:26.014Z,38.20
2018-09-05T11:09:54.143Z,40.30
2018-09-05T11:12:22.219Z,38.60
2018-09-05T11:14:50.326Z,35.10
2018-09-05T11:17:18.492Z,32.60
2018-09-05T11:19:46.666Z,29.60
2018-09-05T11:22:14.743Z,28.40
2018-09-05T11:24:42.810Z,27.10
2018-09-05T11:27:10.910Z,26.70
2018-09-05T11:29:38.975Z,26.90
2018-09-05T11:32:07.514Z,27.10
2018-09-05T11:34:35.655Z,27.30
2018-09-05T11:37:03.833Z,28.00
2018-09-05T11:39:31.914Z,31.60
2018-09-05T11:42:00.020Z,30.80
2018-09-05T11:44:28.164Z,29.30
2018-09-05T11:46:56.296Z,28.30
2018-09-05T11:49:24.469Z,27.40
2018-09-05T11:51:52.610Z,27.40
2018-09-05T11:54:20.734Z,27.20
2018-09-05T11:56:48.801Z,26.70
2018-09-05T11:59:16.947Z,27.40
2018-09-05T12:01:45.103Z,28.10
2018-09-05T12:04:13.266Z,28.50
2018-09-05T12:06:41.370Z,29.80
2018-09-05T12:09:11.108Z,31.80
2018-09-05T12:11:39.335Z,32.40
2018-09-05T12:14:07.995Z,32.00
2018-09-05T12:16:36.979Z,30.40
2018-09-05T12:19:05.645Z,31.00
2018-09-05T12:21:33.746Z,33.20
2018-09-05T12:24:02.016Z,35.90
2018-09-05T12:26:30.116Z,38.70
2018-09-05T12:28:58.211Z,40.70
2018-09-05T12:31:26.291Z,38.30
2018-09-05T12:33:54.408Z,34.80
2018-09-05T12:36:22.476Z,31.90
2018-09-05T12:38:50.580Z,29.90
2018-09-05T12:41:18.665Z,28.90
2018-09-05T12:43:46.791Z,28.10
2018-09-05T12:46:14.910Z,27.50
2018-09-05T12:48:43.062Z,27.50
2018-09-05T12:51:11.182Z,27.40
2018-09-05T12:53:39.275Z,28.10
2018-09-05T12:56:07.413Z,31.00
2018-09-05T12:58:35.515Z,33.20
2018-09-05T13:01:03.621Z,35.40
2018-09-05T13:03:31.744Z,38.00
2018-09-05T13:05:59.825Z,38.20
2018-09-05T13:08:27.924Z,37.90
2018-09-05T13:10:56.034Z,36.10
2018-09-05T13:13:24.178Z,34.00
2018-09-05T13:15:52.260Z,33.00
2018-09-05T13:18:20.342Z,32.60
2018-09-05T13:20:48.434Z,32.70
2018-09-05T13:23:16.548Z,31.90
2018-09-05T13:25:44.656Z,31.20
2018-09-05T13:28:12.790Z,30.80
2018-09-05T13:30:40.875Z,30.40
2018-09-05T13:33:09.140Z,31.40
2018-09-05T13:35:37.180Z,33.10
2018-09-05T13:38:05.271Z,34.90
2018-09-05T13:40:33.393Z,36.60
2018-09-05T13:43:01.501Z,37.30
2018-09-05T13:45:29.662Z,38.20
2018-09-05T13:47:57.751Z,38.30
2018-09-05T13:50:25.835Z,39.00
2018-09-05T13:52:53.955Z,39.60
2018-09-05T13:55:22.033Z,37.70
2018-09-05T13:57:50.125Z,37.40
2018-09-05T14:00:18.210Z,38.00
2018-09-05T14:02:47.395Z,35.40
2018-09-05T14:05:16.358Z,33.70
2018-09-05T14:07:44.587Z,32.80
2018-09-05T14:10:13.195Z,32.20
2018-09-05T14:12:41.305Z,32.80
2018-09-05T14:15:09.479Z,34.80
2018-09-05T14:17:37.728Z,35.80
2018-09-05T14:20:06.044Z,35.60
2018-09-05T14:22:34.161Z,35.60
2018-09-05T14:25:02.266Z,36.40
2018-09-05T14:27:30.446Z,37.70
2018-09-05T14:29:58.881Z,37.70
2018-09-05T14:32:27.371Z,36.10
2018-09-05T14:34:56.621Z,34.50
2018-09-05T14:37:24.801Z,32.80
2018-09-05T14:39:53.184Z,32.40
2018-09-05T14:42:21.315Z,32.60
2018-09-05T14:44:49.416Z,33.50
2018-09-05T14:47:17.489Z,32.20
2018-09-05T14:49:45.686Z,30.80
2018-09-05T14:52:13.875Z,30.20
2018-09-05T14:54:42.122Z,28.80
2018-09-05T14:57:10.242Z,27.80
2018-09-05T14:59:38.416Z,27.60
2018-09-05T15:02:06.623Z,26.80
2018-09-05T15:04:34.794Z,26.30
2018-09-05T15:07:02.980Z,25.90
2018-09-05T15:09:31.079Z,25.80
2018-09-05T15:11:59.346Z,25.70
2018-09-05T15:14:27.398Z,25.70
2018-09-05T15:16:55.589Z,25.90
2018-09-05T15:19:23.744Z,26.30
2018-09-05T15:21:51.856Z,26.30
2018-09-05T15:24:19.970Z,26.50
2018-09-05T15:26:48.082Z,26.40
2018-09-05T15:29:16.218Z,26.50
2018-09-05T15:31:44.315Z,26.70
2018-09-05T15:34:12.386Z,26.70
2018-09-05T15:36:40.548Z,26.70
2018-09-05T15:39:09.925Z,26.60
2018-09-05T15:41:38.135Z,26.50
2018-09-05T15:44:06.250Z,26.50
2018-09-05T15:46:34.359Z,26.30
2018-09-05T15:49:02.506Z,26.10
2018-09-05T15:51:30.596Z,26.00
2018-09-05T15:53:58.727Z,26.00
2018-09-05T15:56:26.790Z,26.00
2018-09-05T15:58:54.978Z,25.90
2018-09-05T16:01:23.063Z,25.80
2018-09-05T16:03:51.175Z,25.50
2018-09-05T16:06:19.223Z,25.20
2018-09-05T16:08:47.323Z,25.00
2018-09-05T16:11:15.435Z,24.80
2018-09-05T16:13:43.580Z,24.60
2018-09-05T16:16:11.692Z,24.50
2018-09-05T16:18:39.796Z,24.30
2018-09-05T16:21:07.850Z,24.20
2018-09-05T16:23:36.028Z,24.10
2018-09-05T16:26:04.290Z,24.00
2018-09-05T16:28:32.399Z,24.00
2018-09-05T16:31:00.526Z,24.00
2018-09-05T16:33:28.673Z,24.00
2018-09-05T16:35:56.845Z,23.90
2018-09-05T16:38:25.120Z,23.80
2018-09-05T16:40:53.255Z,23.80
2018-09-05T16:43:21.416Z,23.70
2018-09-05T16:45:49.599Z,23.60
2018-09-05T16:48:17.717Z,23.50
2018-09-05T16:50:45.824Z,23.50
2018-09-05T16:53:13.955Z,23.40
2018-09-05T16:55:42.147Z,23.40
2018-09-05T16:58:10.293Z,23.40
2018-09-05T17:00:38.472Z,23.30
2018-09-05T17:03:06.594Z,23.30
2018-09-05T17:05:34.809Z,23.20
2018-09-05T17:08:03.009Z,23.10
2018-09-05T17:10:31.068Z,23.00
2018-09-05T17:12:59.190Z,22.80
2018-09-05T17:15:27.255Z,22.70
2018-09-05T17:17:55.331Z,22.60
2018-09-05T17:20:23.470Z,22.40
2018-09-05T17:22:51.518Z,22.30
2018-09-05T17:25:19.594Z,22.10
2018-09-05T17:27:47.709Z,22.00
2018-09-05T17:30:15.850Z,21.90
2018-09-05T17:32:43.887Z,21.80
2018-09-05T17:35:11.970Z,21.60
2018-09-05T17:37:40.024Z,21.40
2018-09-05T17:40:08.111Z,21.10
2018-09-05T17:42:36.176Z,20.90
2018-09-05T17:45:04.302Z,20.70
2018-09-05T17:47:32.365Z,20.60
2018-09-05T17:50:00.454Z,20.50
2018-09-05T17:52:28.523Z,20.30
2018-09-05T17:54:56.601Z,20.10
2018-09-05T17:57:24.719Z,19.90
2018-09-05T17:59:52.808Z,19.70
2018-09-05T18:02:20.869Z,19.40
2018-09-05T18:04:48.924Z,19.20
2018-09-05T18:07:17.104Z,19.00
2018-09-05T18:09:45.239Z,18.90
2018-09-05T18:12:13.451Z,18.80
2018-09-05T18:14:41.590Z,18.90
2018-09-05T18:17:09.582Z,18.90
2018-09-05T18:19:37.781Z,18.90
2018-09-05T18:22:05.856Z,18.80
2018-09-05T18:24:33.956Z,18.70
2018-09-05T18:27:02.026Z,18.90
2018-09-05T18:29:30.124Z,19.10
2018-09-05T18:31:58.186Z,18.90
2018-09-05T18:34:26.270Z,18.90
2018-09-05T18:36:54.366Z,18.80
2018-09-05T18:39:22.471Z,18.80
2018-09-05T18:41:50.550Z,18.90
2018-09-05T18:44:18.618Z,18.90
2018-09-05T18:46:46.690Z,18.90
2018-09-05T18:49:14.871Z,18.90
2018-09-05T18:51:42.981Z,19.00
2018-09-05T18:54:11.113Z,18.90
2018-09-05T18:56:39.179Z,18.90
2018-09-05T18:59:07.311Z,18.70
2018-09-05T19:01:35.393Z,18.60
2018-09-05T19:04:03.447Z,18.60
2018-09-05T19:06:31.610Z,18.50
2018-09-05T19:08:59.662Z,18.40
2018-09-05T19:11:27.742Z,18.30
2018-09-05T19:13:55.846Z,18.10
2018-09-05T19:16:23.933Z,18.00
2018-09-05T19:18:52.241Z,17.90
2018-09-05T19:21:20.406Z,18.10
2018-09-05T19:23:48.447Z,18.10
2018-09-05T19:26:16.572Z,17.90
2018-09-05T19:28:44.663Z,18.00
2018-09-05T19:31:12.733Z,18.00
2018-09-05T19:33:40.792Z,17.90
2018-09-05T19:36:08.848Z,17.90
2018-09-05T19:38:36.898Z,17.80
2018-09-05T19:41:05.051Z,17.70
2018-09-05T19:43:33.108Z,17.80
2018-09-05T19:46:01.296Z,17.70
2018-09-05T19:48:29.382Z,17.70
2018-09-05T19:50:57.511Z,17.60
2018-09-05T19:53:25.647Z,17.60
2018-09-05T19:55:53.779Z,17.60
2018-09-05T19:58:21.861Z,17.50
2018-09-05T20:00:50.175Z,17.40
2018-09-05T20:03:18.362Z,17.40
2018-09-05T20:05:46.410Z,17.40
2018-09-05T20:10:42.679Z,17.30
2018-09-05T20:13:10.790Z,17.30
2018-09-05T20:15:38.844Z,17.20
2018-09-05T20:18:07.319Z,17.20
2018-09-05T20:20:35.790Z,17.30
2018-09-05T20:23:03.861Z,17.30
2018-09-05T20:25:32.241Z,17.30
2018-09-05T20:28:00.335Z,17.20
2018-09-05T20:30:28.400Z,17.20
2018-09-05T20:32:56.511Z,17.20
2018-09-05T20:35:24.574Z,17.10
2018-09-05T20:37:52.721Z,16.90
2018-09-05T20:40:20.778Z,16.90
2018-09-05T20:42:48.891Z,16.70
2018-09-05T20:45:16.942Z,16.50
2018-09-05T20:47:45.326Z,16.50
2018-09-05T20:50:13.453Z,16.50
2018-09-05T20:52:41.635Z,16.50
2018-09-05T20:55:09.746Z,16.40
2018-09-05T20:57:37.866Z,16.40
2018-09-05T21:00:06.718Z,16.30
2018-09-05T21:02:34.896Z,16.20
2018-09-05T21:05:03.026Z,16.10
2018-09-05T21:07:31.156Z,16.10
2018-09-05T21:09:59.227Z,16.00
2018-09-05T21:12:28.435Z,16.00
2018-09-05T21:14:56.598Z,15.90
2018-09-05T21:17:24.715Z,15.80
2018-09-05T21:19:52.784Z,15.80
2018-09-05T21:22:20.967Z,15.80
2018-09-05T21:24:49.155Z,15.80
2018-09-05T21:27:17.385Z,15.80
2018-09-05T21:29:45.737Z,15.70
2018-09-05T21:32:13.907Z,15.80
2018-09-05T21:34:42.018Z,15.70
2018-09-05T21:37:10.168Z,15.80
2018-09-05T21:39:38.299Z,15.80
2018-09-05T21:42:06.360Z,15.70
2018-09-05T21:44:35.096Z,15.70
2018-09-05T21:47:03.197Z,15.70
2018-09-05T21:49:31.298Z,15.70
2018-09-05T21:51:59.394Z,15.60
2018-09-05T21:54:27.449Z,15.60
2018-09-05T21:56:55.606Z,15.60
2018-09-05T21:59:23.700Z,15.50
2018-09-05T22:01:51.775Z,15.50
2018-09-05T22:04:19.898Z,15.40
2018-09-05T22:06:48.038Z,15.30
2018-09-05T22:09:16.166Z,15.30
2018-09-05T22:11:44.304Z,15.10
2018-09-05T22:14:12.440Z,15.00
2018-09-05T22:16:40.522Z,15.00
2018-09-05T22:19:08.591Z,15.00
2018-09-05T22:21:36.757Z,15.00
2018-09-05T22:24:04.827Z,15.00
2018-09-05T22:26:32.908Z,15.00
2018-09-05T22:29:00.977Z,15.10
2018-09-05T22:31:29.080Z,15.10
2018-09-05T22:33:57.146Z,15.00
2018-09-05T22:36:25.246Z,15.00
2018-09-05T22:38:53.370Z,15.00
2018-09-05T22:41:21.418Z,15.00
2018-09-05T22:44:00.950Z,15.00
2018-09-05T22:46:40.650Z,15.00
2018-09-05T22:49:24.249Z,15.00
2018-09-05T22:52:09.388Z,15.00
2018-09-05T22:56:55.387Z,15.00
2018-09-05T22:59:34.851Z,15.00
2018-09-05T23:02:14.432Z,14.90
2018-09-05T23:06:53.654Z,14.80
2018-09-05T23:09:33.281Z,14.70
2018-09-05T23:12:23.522Z,14.60
2018-09-05T23:15:03.689Z,14.60
2018-09-05T23:17:43.239Z,14.60
2018-09-05T23:20:25.271Z,14.50
2018-09-05T23:23:04.712Z,14.40
2018-09-05T23:25:32.818Z,14.40
2018-09-05T23:28:00.889Z,14.30
2018-09-05T23:30:29.065Z,14.20
2018-09-05T23:32:57.254Z,14.10
2018-09-05T23:35:25.350Z,14.10
2018-09-05T23:37:53.397Z,14.00
2018-09-05T23:40:21.447Z,14.00
2018-09-05T23:42:49.578Z,14.00
2018-09-05T23:45:17.676Z,14.00
2018-09-05T23:47:45.734Z,14.00
2018-09-05T23:50:13.875Z,14.00
2018-09-05T23:52:41.985Z,14.10
2018-09-05T23:55:10.048Z,14.00
2018-09-05T23:57:38.130Z,14.10
